sensor_id;sensor_type;location;lat;lon;timestamp;temperature;humidity
5924;DHT22;2987;50.884;14.818;2023-05-07T00:01:33;9.50;99.90
5924;DHT22;2987;50.884;14.818;2023-05-07T00:03:59;9.50;99.90
5924;DHT22;2987;50.884;14.818;2023-05-07T00:06:25;9.50;99.90
5924;DHT22;2987;50.884;14.818;2023-05-07T00:08:52;9.40;99.90
5924;DHT22;2987;50.884;14.818;2023-05-07T00:11:18;9.40;99.90
5924;DHT22;2987;50.884;14.818;2023-05-07T00:13:43;9.50;99.90
5924;DHT22;2987;50.884;14.818;2023-05-07T00:16:09;9.40;99.90
5924;DHT22;2987;50.884;14.818;2023-05-07T00:18:35;9.50;99.90
5924;DHT22;2987;50.884;14.818;2023-05-07T00:21:01;9.50;99.90
5924;DHT22;2987;50.884;14.818;2023-05-07T00:23:27;9.50;99.90
5924;DHT22;2987;50.884;14.818;2023-05-07T00:25:53;9.30;99.90
5924;DHT22;2987;50.884;14.818;2023-05-07T00:28:18;9.00;99.90
5924;DHT22;2987;50.884;14.818;2023-05-07T00:30:44;9.50;99.90
5924;DHT22;2987;50.884;14.818;2023-05-07T00:33:10;9.60;99.90
5924;DHT22;2987;50.884;14.818;2023-05-07T00:35:36;9.40;99.90
5924;DHT22;2987;50.884;14.818;2023-05-07T00:38:02;9.30;99.90
5924;DHT22;2987;50.884;14.818;2023-05-07T00:40:28;9.20;99.90
5924;DHT22;2987;50.884;14.818;2023-05-07T00:42:54;9.10;99.90
5924;DHT22;2987;50.884;14.818;2023-05-07T00:45:27;9.20;99.90
5924;DHT22;2987;50.884;14.818;2023-05-07T00:47:59;9.10;99.90
5924;DHT22;2987;50.884;14.818;2023-05-07T00:50:27;9.10;99.90
5924;DHT22;2987;50.884;14.818;2023-05-07T00:52:54;9.40;99.90
5924;DHT22;2987;50.884;14.818;2023-05-07T00:55:21;9.20;99.90
5924;DHT22;2987;50.884;14.818;2023-05-07T00:57:47;9.00;99.90
5924;DHT22;2987;50.884;14.818;2023-05-07T01:00:13;9.00;99.90
5924;DHT22;2987;50.884;14.818;2023-05-07T01:02:40;9.20;99.90
5924;DHT22;2987;50.884;14.818;2023-05-07T01:05:07;9.00;99.90
5924;DHT22;2987;50.884;14.818;2023-05-07T01:07:35;8.90;99.90
5924;DHT22;2987;50.884;14.818;2023-05-07T01:10:03;8.90;99.90
5924;DHT22;2987;50.884;14.818;2023-05-07T01:12:31;9.00;99.90
5924;DHT22;2987;50.884;14.818;2023-05-07T01:14:57;9.00;99.90
5924;DHT22;2987;50.884;14.818;2023-05-07T01:17:24;9.20;99.90
5924;DHT22;2987;50.884;14.818;2023-05-07T01:19:51;8.90;99.90
5924;DHT22;2987;50.884;14.818;2023-05-07T01:22:35;9.30;99.90
5924;DHT22;2987;50.884;14.818;2023-05-07T01:25:03;9.20;99.90
5924;DHT22;2987;50.884;14.818;2023-05-07T01:27:31;8.90;99.90
5924;DHT22;2987;50.884;14.818;2023-05-07T01:29:59;8.90;99.90
5924;DHT22;2987;50.884;14.818;2023-05-07T01:34:55;8.90;99.90
5924;DHT22;2987;50.884;14.818;2023-05-07T01:37:23;9.20;99.90
5924;DHT22;2987;50.884;14.818;2023-05-07T01:39:50;9.20;99.90
5924;DHT22;2987;50.884;14.818;2023-05-07T01:42:17;9.10;99.90
5924;DHT22;2987;50.884;14.818;2023-05-07T01:44:43;8.90;99.90
5924;DHT22;2987;50.884;14.818;2023-05-07T01:47:09;9.00;99.90
5924;DHT22;2987;50.884;14.818;2023-05-07T01:49:36;9.00;99.90
5924;DHT22;2987;50.884;14.818;2023-05-07T01:52:02;9.10;99.90
5924;DHT22;2987;50.884;14.818;2023-05-07T01:54:29;9.30;99.90
5924;DHT22;2987;50.884;14.818;2023-05-07T01:56:57;8.90;99.90
5924;DHT22;2987;50.884;14.818;2023-05-07T01:59:23;8.70;99.90
5924;DHT22;2987;50.884;14.818;2023-05-07T02:01:49;9.10;99.90
5924;DHT22;2987;50.884;14.818;2023-05-07T02:04:15;8.90;99.90
5924;DHT22;2987;50.884;14.818;2023-05-07T02:06:41;9.00;99.90
5924;DHT22;2987;50.884;14.818;2023-05-07T02:09:09;8.90;99.90
5924;DHT22;2987;50.884;14.818;2023-05-07T02:11:36;8.90;99.90
5924;DHT22;2987;50.884;14.818;2023-05-07T02:14:02;8.60;99.90
5924;DHT22;2987;50.884;14.818;2023-05-07T02:16:28;8.90;99.90
5924;DHT22;2987;50.884;14.818;2023-05-07T02:18:55;8.70;99.90
5924;DHT22;2987;50.884;14.818;2023-05-07T02:21:21;8.70;99.90
5924;DHT22;2987;50.884;14.818;2023-05-07T02:23:47;9.00;99.90
5924;DHT22;2987;50.884;14.818;2023-05-07T02:26:13;8.90;99.90
5924;DHT22;2987;50.884;14.818;2023-05-07T02:28:39;8.90;99.90
5924;DHT22;2987;50.884;14.818;2023-05-07T02:31:06;8.90;99.90
5924;DHT22;2987;50.884;14.818;2023-05-07T02:33:32;8.90;99.90
5924;DHT22;2987;50.884;14.818;2023-05-07T02:36:10;8.90;99.90
5924;DHT22;2987;50.884;14.818;2023-05-07T02:38:44;8.80;99.90
5924;DHT22;2987;50.884;14.818;2023-05-07T02:41:10;8.90;99.90
5924;DHT22;2987;50.884;14.818;2023-05-07T02:43:36;8.80;99.90
5924;DHT22;2987;50.884;14.818;2023-05-07T02:46:04;8.70;99.90
5924;DHT22;2987;50.884;14.818;2023-05-07T02:48:30;8.70;99.90
5924;DHT22;2987;50.884;14.818;2023-05-07T02:50:57;8.60;99.90
5924;DHT22;2987;50.884;14.818;2023-05-07T02:53:23;8.90;99.90
5924;DHT22;2987;50.884;14.818;2023-05-07T02:56:00;8.90;99.90
5924;DHT22;2987;50.884;14.818;2023-05-07T02:58:27;8.50;99.90
5924;DHT22;2987;50.884;14.818;2023-05-07T03:00:53;8.60;99.90
5924;DHT22;2987;50.884;14.818;2023-05-07T03:03:29;8.90;99.90
5924;DHT22;2987;50.884;14.818;2023-05-07T03:08:22;8.50;99.90
5924;DHT22;2987;50.884;14.818;2023-05-07T03:10:48;8.90;99.90
5924;DHT22;2987;50.884;14.818;2023-05-07T03:13:14;8.90;99.90
5924;DHT22;2987;50.884;14.818;2023-05-07T03:15:40;8.60;99.90
5924;DHT22;2987;50.884;14.818;2023-05-07T03:20:32;8.90;99.90
5924;DHT22;2987;50.884;14.818;2023-05-07T03:22:58;8.50;99.90
5924;DHT22;2987;50.884;14.818;2023-05-07T03:25:24;8.80;99.90
5924;DHT22;2987;50.884;14.818;2023-05-07T03:27:50;8.80;99.90
5924;DHT22;2987;50.884;14.818;2023-05-07T03:30:20;8.70;99.90
5924;DHT22;2987;50.884;14.818;2023-05-07T03:32:46;8.70;99.90
5924;DHT22;2987;50.884;14.818;2023-05-07T03:35:12;8.50;99.90
5924;DHT22;2987;50.884;14.818;2023-05-07T03:37:39;8.90;99.90
5924;DHT22;2987;50.884;14.818;2023-05-07T03:40:06;8.90;99.90
5924;DHT22;2987;50.884;14.818;2023-05-07T03:42:41;8.60;99.90
5924;DHT22;2987;50.884;14.818;2023-05-07T03:45:08;8.50;99.90
5924;DHT22;2987;50.884;14.818;2023-05-07T03:47:34;8.70;99.90
5924;DHT22;2987;50.884;14.818;2023-05-07T03:50:00;8.70;99.90
5924;DHT22;2987;50.884;14.818;2023-05-07T03:52:26;8.80;99.90
5924;DHT22;2987;50.884;14.818;2023-05-07T03:54:55;8.60;99.90
5924;DHT22;2987;50.884;14.818;2023-05-07T03:57:21;8.60;99.90
5924;DHT22;2987;50.884;14.818;2023-05-07T03:59:47;8.90;99.90
5924;DHT22;2987;50.884;14.818;2023-05-07T04:02:13;8.60;99.90
5924;DHT22;2987;50.884;14.818;2023-05-07T04:04:40;8.30;99.90
5924;DHT22;2987;50.884;14.818;2023-05-07T04:07:06;8.60;99.90
5924;DHT22;2987;50.884;14.818;2023-05-07T04:09:37;8.30;99.90
5924;DHT22;2987;50.884;14.818;2023-05-07T04:12:04;8.50;99.90
5924;DHT22;2987;50.884;14.818;2023-05-07T04:14:30;8.30;99.90
5924;DHT22;2987;50.884;14.818;2023-05-07T04:16:59;8.30;99.90
5924;DHT22;2987;50.884;14.818;2023-05-07T04:19:25;8.30;99.90
5924;DHT22;2987;50.884;14.818;2023-05-07T04:21:53;8.30;99.90
5924;DHT22;2987;50.884;14.818;2023-05-07T04:26:45;8.30;99.90
5924;DHT22;2987;50.884;14.818;2023-05-07T04:29:11;8.20;99.90
5924;DHT22;2987;50.884;14.818;2023-05-07T04:31:37;8.60;99.90
5924;DHT22;2987;50.884;14.818;2023-05-07T04:34:04;8.30;99.90
5924;DHT22;2987;50.884;14.818;2023-05-07T04:39:02;8.30;99.90
5924;DHT22;2987;50.884;14.818;2023-05-07T04:41:28;8.80;99.90
5924;DHT22;2987;50.884;14.818;2023-05-07T04:43:55;8.60;99.90
5924;DHT22;2987;50.884;14.818;2023-05-07T04:46:23;8.70;99.90
5924;DHT22;2987;50.884;14.818;2023-05-07T04:48:50;8.60;99.90
5924;DHT22;2987;50.884;14.818;2023-05-07T04:51:16;8.60;99.90
5924;DHT22;2987;50.884;14.818;2023-05-07T04:53:42;8.30;99.90
5924;DHT22;2987;50.884;14.818;2023-05-07T04:56:08;8.60;99.90
5924;DHT22;2987;50.884;14.818;2023-05-07T04:58:39;8.30;99.90
5924;DHT22;2987;50.884;14.818;2023-05-07T05:01:06;8.30;99.90
5924;DHT22;2987;50.884;14.818;2023-05-07T05:03:32;8.20;99.90
5924;DHT22;2987;50.884;14.818;2023-05-07T05:05:58;8.50;99.90
5924;DHT22;2987;50.884;14.818;2023-05-07T05:08:27;8.50;99.90
5924;DHT22;2987;50.884;14.818;2023-05-07T05:10:56;8.60;99.90
5924;DHT22;2987;50.884;14.818;2023-05-07T05:13:22;8.90;99.90
5924;DHT22;2987;50.884;14.818;2023-05-07T05:15:48;8.90;99.90
5924;DHT22;2987;50.884;14.818;2023-05-07T05:18:15;8.70;99.90
5924;DHT22;2987;50.884;14.818;2023-05-07T05:20:41;8.60;99.90
5924;DHT22;2987;50.884;14.818;2023-05-07T05:23:08;8.90;99.90
5924;DHT22;2987;50.884;14.818;2023-05-07T05:25:34;8.60;99.90
5924;DHT22;2987;50.884;14.818;2023-05-07T05:30:28;8.80;99.90
5924;DHT22;2987;50.884;14.818;2023-05-07T05:32:53;8.90;99.90
5924;DHT22;2987;50.884;14.818;2023-05-07T05:35:20;9.20;99.90
5924;DHT22;2987;50.884;14.818;2023-05-07T05:37:46;9.00;99.90
5924;DHT22;2987;50.884;14.818;2023-05-07T05:40:12;9.20;99.90
5924;DHT22;2987;50.884;14.818;2023-05-07T05:42:38;9.20;99.90
5924;DHT22;2987;50.884;14.818;2023-05-07T05:45:05;9.30;99.90
5924;DHT22;2987;50.884;14.818;2023-05-07T05:47:32;9.30;99.90
5924;DHT22;2987;50.884;14.818;2023-05-07T05:49:59;9.00;99.90
5924;DHT22;2987;50.884;14.818;2023-05-07T05:52:25;9.30;99.90
5924;DHT22;2987;50.884;14.818;2023-05-07T05:54:51;9.10;99.90
5924;DHT22;2987;50.884;14.818;2023-05-07T05:57:17;9.30;99.90
5924;DHT22;2987;50.884;14.818;2023-05-07T05:59:45;9.30;99.90
5924;DHT22;2987;50.884;14.818;2023-05-07T06:02:12;9.30;99.90
5924;DHT22;2987;50.884;14.818;2023-05-07T06:04:38;9.30;99.90
5924;DHT22;2987;50.884;14.818;2023-05-07T06:07:05;9.50;99.90
5924;DHT22;2987;50.884;14.818;2023-05-07T06:09:30;9.50;99.90
5924;DHT22;2987;50.884;14.818;2023-05-07T06:11:56;9.70;99.90
5924;DHT22;2987;50.884;14.818;2023-05-07T06:14:22;9.60;99.90
5924;DHT22;2987;50.884;14.818;2023-05-07T06:16:48;9.50;99.90
5924;DHT22;2987;50.884;14.818;2023-05-07T06:19:14;9.70;99.90
5924;DHT22;2987;50.884;14.818;2023-05-07T06:21:43;9.30;99.90
5924;DHT22;2987;50.884;14.818;2023-05-07T06:24:10;9.60;99.90
5924;DHT22;2987;50.884;14.818;2023-05-07T06:26:38;9.50;99.90
5924;DHT22;2987;50.884;14.818;2023-05-07T06:29:03;9.70;99.90
5924;DHT22;2987;50.884;14.818;2023-05-07T06:31:30;9.70;99.90
5924;DHT22;2987;50.884;14.818;2023-05-07T06:34:02;9.80;99.90
5924;DHT22;2987;50.884;14.818;2023-05-07T06:36:34;10.10;99.90
5924;DHT22;2987;50.884;14.818;2023-05-07T06:39:07;9.90;99.90
5924;DHT22;2987;50.884;14.818;2023-05-07T06:41:33;10.00;99.90
5924;DHT22;2987;50.884;14.818;2023-05-07T06:44:06;10.00;99.90
5924;DHT22;2987;50.884;14.818;2023-05-07T06:46:38;10.00;99.90
5924;DHT22;2987;50.884;14.818;2023-05-07T06:49:05;10.00;99.90
5924;DHT22;2987;50.884;14.818;2023-05-07T06:51:31;10.20;99.90
5924;DHT22;2987;50.884;14.818;2023-05-07T06:54:01;10.30;99.90
5924;DHT22;2987;50.884;14.818;2023-05-07T06:56:27;10.10;99.90
5924;DHT22;2987;50.884;14.818;2023-05-07T06:58:53;10.20;99.90
5924;DHT22;2987;50.884;14.818;2023-05-07T07:01:20;10.10;99.90
5924;DHT22;2987;50.884;14.818;2023-05-07T07:03:46;10.30;99.90
5924;DHT22;2987;50.884;14.818;2023-05-07T07:06:12;10.40;99.90
5924;DHT22;2987;50.884;14.818;2023-05-07T07:08:38;10.30;99.90
5924;DHT22;2987;50.884;14.818;2023-05-07T07:11:06;10.50;99.90
5924;DHT22;2987;50.884;14.818;2023-05-07T07:13:32;10.70;99.90
5924;DHT22;2987;50.884;14.818;2023-05-07T07:15:58;10.80;99.90
5924;DHT22;2987;50.884;14.818;2023-05-07T07:18:25;10.60;99.90
5924;DHT22;2987;50.884;14.818;2023-05-07T07:20:52;10.70;99.90
5924;DHT22;2987;50.884;14.818;2023-05-07T07:23:18;10.80;99.90
5924;DHT22;2987;50.884;14.818;2023-05-07T07:25:44;11.00;99.90
5924;DHT22;2987;50.884;14.818;2023-05-07T07:28:10;11.10;99.90
5924;DHT22;2987;50.884;14.818;2023-05-07T07:30:38;11.10;99.90
5924;DHT22;2987;50.884;14.818;2023-05-07T07:33:04;11.20;99.90
5924;DHT22;2987;50.884;14.818;2023-05-07T07:35:34;11.30;99.90
5924;DHT22;2987;50.884;14.818;2023-05-07T07:38:00;11.50;99.90
5924;DHT22;2987;50.884;14.818;2023-05-07T07:40:28;11.50;99.90
5924;DHT22;2987;50.884;14.818;2023-05-07T07:42:54;11.40;99.90
5924;DHT22;2987;50.884;14.818;2023-05-07T07:45:21;11.30;99.90
5924;DHT22;2987;50.884;14.818;2023-05-07T07:47:49;11.20;99.90
5924;DHT22;2987;50.884;14.818;2023-05-07T07:50:15;11.20;99.90
5924;DHT22;2987;50.884;14.818;2023-05-07T07:52:41;11.10;99.90
5924;DHT22;2987;50.884;14.818;2023-05-07T07:55:09;11.00;99.90
5924;DHT22;2987;50.884;14.818;2023-05-07T07:57:35;11.10;99.90
5924;DHT22;2987;50.884;14.818;2023-05-07T08:00:02;11.30;99.90
5924;DHT22;2987;50.884;14.818;2023-05-07T08:02:31;11.30;99.90
5924;DHT22;2987;50.884;14.818;2023-05-07T08:04:57;11.40;99.90
5924;DHT22;2987;50.884;14.818;2023-05-07T08:07:23;11.20;99.90
5924;DHT22;2987;50.884;14.818;2023-05-07T08:09:49;11.00;99.90
5924;DHT22;2987;50.884;14.818;2023-05-07T08:12:19;11.10;99.90
5924;DHT22;2987;50.884;14.818;2023-05-07T08:14:45;11.20;99.90
5924;DHT22;2987;50.884;14.818;2023-05-07T08:17:11;11.40;99.90
5924;DHT22;2987;50.884;14.818;2023-05-07T08:19:38;11.30;99.90
5924;DHT22;2987;50.884;14.818;2023-05-07T08:22:07;11.40;99.90
5924;DHT22;2987;50.884;14.818;2023-05-07T08:24:33;11.50;99.90
5924;DHT22;2987;50.884;14.818;2023-05-07T08:27:00;11.50;99.90
5924;DHT22;2987;50.884;14.818;2023-05-07T08:29:26;11.60;99.90
5924;DHT22;2987;50.884;14.818;2023-05-07T08:31:52;11.60;99.90
5924;DHT22;2987;50.884;14.818;2023-05-07T08:34:19;11.80;99.90
5924;DHT22;2987;50.884;14.818;2023-05-07T08:36:47;12.00;99.90
5924;DHT22;2987;50.884;14.818;2023-05-07T08:39:16;12.00;99.90
5924;DHT22;2987;50.884;14.818;2023-05-07T08:41:45;12.20;99.90
5924;DHT22;2987;50.884;14.818;2023-05-07T08:44:13;12.30;99.90
5924;DHT22;2987;50.884;14.818;2023-05-07T08:46:41;12.40;99.90
5924;DHT22;2987;50.884;14.818;2023-05-07T08:49:09;12.50;99.90
5924;DHT22;2987;50.884;14.818;2023-05-07T08:51:35;12.60;99.90
5924;DHT22;2987;50.884;14.818;2023-05-07T08:54:01;12.60;99.90
5924;DHT22;2987;50.884;14.818;2023-05-07T08:56:31;12.40;99.90
5924;DHT22;2987;50.884;14.818;2023-05-07T08:58:58;12.40;99.90
5924;DHT22;2987;50.884;14.818;2023-05-07T09:01:26;12.40;99.90
5924;DHT22;2987;50.884;14.818;2023-05-07T09:03:55;12.50;99.90
5924;DHT22;2987;50.884;14.818;2023-05-07T09:06:22;12.80;99.90
5924;DHT22;2987;50.884;14.818;2023-05-07T09:08:51;12.90;99.90
5924;DHT22;2987;50.884;14.818;2023-05-07T09:11:22;12.90;99.90
5924;DHT22;2987;50.884;14.818;2023-05-07T09:13:53;12.90;99.90
5924;DHT22;2987;50.884;14.818;2023-05-07T09:16:21;13.10;99.90
5924;DHT22;2987;50.884;14.818;2023-05-07T09:18:51;13.10;99.90
5924;DHT22;2987;50.884;14.818;2023-05-07T09:21:18;13.20;99.90
5924;DHT22;2987;50.884;14.818;2023-05-07T09:23:55;13.30;99.90
5924;DHT22;2987;50.884;14.818;2023-05-07T09:26:26;13.30;99.90
5924;DHT22;2987;50.884;14.818;2023-05-07T09:28:54;13.30;99.90
5924;DHT22;2987;50.884;14.818;2023-05-07T09:31:20;13.30;99.90
5924;DHT22;2987;50.884;14.818;2023-05-07T09:33:49;13.30;99.90
5924;DHT22;2987;50.884;14.818;2023-05-07T09:36:16;13.40;99.90
5924;DHT22;2987;50.884;14.818;2023-05-07T09:38:43;13.70;99.90
5924;DHT22;2987;50.884;14.818;2023-05-07T09:41:12;13.90;99.90
5924;DHT22;2987;50.884;14.818;2023-05-07T09:43:58;14.10;99.90
5924;DHT22;2987;50.884;14.818;2023-05-07T09:46:33;14.30;99.90
5924;DHT22;2987;50.884;14.818;2023-05-07T09:49:07;14.40;99.90
5924;DHT22;2987;50.884;14.818;2023-05-07T09:51:43;14.50;99.90
5924;DHT22;2987;50.884;14.818;2023-05-07T09:54:11;14.50;99.90
5924;DHT22;2987;50.884;14.818;2023-05-07T09:56:40;14.60;99.90
5924;DHT22;2987;50.884;14.818;2023-05-07T09:59:14;14.70;99.90
5924;DHT22;2987;50.884;14.818;2023-05-07T10:01:42;14.90;99.90
5924;DHT22;2987;50.884;14.818;2023-05-07T10:04:09;15.10;99.90
5924;DHT22;2987;50.884;14.818;2023-05-07T10:06:37;14.90;99.90
5924;DHT22;2987;50.884;14.818;2023-05-07T10:09:05;15.10;99.90
5924;DHT22;2987;50.884;14.818;2023-05-07T10:11:33;15.30;99.90
5924;DHT22;2987;50.884;14.818;2023-05-07T10:14:04;15.40;99.90
5924;DHT22;2987;50.884;14.818;2023-05-07T10:16:34;15.20;99.90
5924;DHT22;2987;50.884;14.818;2023-05-07T10:19:04;15.00;99.90
5924;DHT22;2987;50.884;14.818;2023-05-07T10:21:36;15.00;99.90
5924;DHT22;2987;50.884;14.818;2023-05-07T10:24:25;14.90;99.90
5924;DHT22;2987;50.884;14.818;2023-05-07T10:26:53;14.80;99.90
5924;DHT22;2987;50.884;14.818;2023-05-07T10:29:37;14.80;99.90
5924;DHT22;2987;50.884;14.818;2023-05-07T10:37:17;14.90;99.90
5924;DHT22;2987;50.884;14.818;2023-05-07T10:39:45;15.00;99.90
5924;DHT22;2987;50.884;14.818;2023-05-07T10:42:11;15.10;99.90
5924;DHT22;2987;50.884;14.818;2023-05-07T10:44:41;15.20;99.90
5924;DHT22;2987;50.884;14.818;2023-05-07T10:47:15;15.20;99.90
5924;DHT22;2987;50.884;14.818;2023-05-07T10:50:19;15.10;99.90
5924;DHT22;2987;50.884;14.818;2023-05-07T10:52:30;14.90;99.90
5924;DHT22;2987;50.884;14.818;2023-05-07T10:55:19;14.90;99.90
5924;DHT22;2987;50.884;14.818;2023-05-07T10:58:24;14.70;99.90
5924;DHT22;2987;50.884;14.818;2023-05-07T11:01:04;14.60;99.90
5924;DHT22;2987;50.884;14.818;2023-05-07T11:04:12;14.50;99.90
5924;DHT22;2987;50.884;14.818;2023-05-07T11:06:38;14.40;99.90
5924;DHT22;2987;50.884;14.818;2023-05-07T11:09:09;14.50;99.90
5924;DHT22;2987;50.884;14.818;2023-05-07T11:11:44;14.50;99.90
5924;DHT22;2987;50.884;14.818;2023-05-07T11:14:43;14.50;99.90
5924;DHT22;2987;50.884;14.818;2023-05-07T11:17:14;14.60;99.90
5924;DHT22;2987;50.884;14.818;2023-05-07T11:19:53;14.70;99.90
5924;DHT22;2987;50.884;14.818;2023-05-07T11:22:38;14.70;99.90
5924;DHT22;2987;50.884;14.818;2023-05-07T11:25:18;14.90;99.90
5924;DHT22;2987;50.884;14.818;2023-05-07T11:27:49;14.90;99.90
5924;DHT22;2987;50.884;14.818;2023-05-07T11:30:18;15.20;99.90
5924;DHT22;2987;50.884;14.818;2023-05-07T11:32:47;15.40;99.90
5924;DHT22;2987;50.884;14.818;2023-05-07T11:35:16;15.30;99.90
5924;DHT22;2987;50.884;14.818;2023-05-07T11:37:44;15.40;99.90
5924;DHT22;2987;50.884;14.818;2023-05-07T11:40:12;15.30;99.90
5924;DHT22;2987;50.884;14.818;2023-05-07T11:42:40;15.20;99.90
5924;DHT22;2987;50.884;14.818;2023-05-07T11:45:09;15.40;99.90
5924;DHT22;2987;50.884;14.818;2023-05-07T11:47:36;15.30;99.90
5924;DHT22;2987;50.884;14.818;2023-05-07T11:50:05;15.20;99.90
5924;DHT22;2987;50.884;14.818;2023-05-07T11:52:33;15.00;99.90
5924;DHT22;2987;50.884;14.818;2023-05-07T11:55:01;15.00;99.90
5924;DHT22;2987;50.884;14.818;2023-05-07T11:57:27;15.20;99.90
5924;DHT22;2987;50.884;14.818;2023-05-07T11:59:56;15.40;99.90
5924;DHT22;2987;50.884;14.818;2023-05-07T12:02:23;15.50;99.90
5924;DHT22;2987;50.884;14.818;2023-05-07T12:04:51;15.60;99.90
5924;DHT22;2987;50.884;14.818;2023-05-07T12:07:17;15.40;99.90
5924;DHT22;2987;50.884;14.818;2023-05-07T12:09:45;15.40;99.90
5924;DHT22;2987;50.884;14.818;2023-05-07T12:12:11;15.30;99.90
5924;DHT22;2987;50.884;14.818;2023-05-07T12:14:40;15.10;99.90
5924;DHT22;2987;50.884;14.818;2023-05-07T12:17:07;15.00;99.90
5924;DHT22;2987;50.884;14.818;2023-05-07T12:19:35;15.20;99.90
5924;DHT22;2987;50.884;14.818;2023-05-07T12:22:03;15.30;99.90
5924;DHT22;2987;50.884;14.818;2023-05-07T12:24:45;15.20;99.90
5924;DHT22;2987;50.884;14.818;2023-05-07T12:27:11;15.20;99.90
5924;DHT22;2987;50.884;14.818;2023-05-07T12:29:38;15.20;99.90
5924;DHT22;2987;50.884;14.818;2023-05-07T12:32:06;15.20;99.90
5924;DHT22;2987;50.884;14.818;2023-05-07T12:34:39;15.10;99.90
5924;DHT22;2987;50.884;14.818;2023-05-07T12:37:05;15.10;99.90
5924;DHT22;2987;50.884;14.818;2023-05-07T12:39:31;14.90;99.90
5924;DHT22;2987;50.884;14.818;2023-05-07T12:41:59;14.90;99.90
5924;DHT22;2987;50.884;14.818;2023-05-07T12:44:30;14.90;99.90
5924;DHT22;2987;50.884;14.818;2023-05-07T12:46:56;14.80;99.90
5924;DHT22;2987;50.884;14.818;2023-05-07T12:49:23;14.90;99.90
5924;DHT22;2987;50.884;14.818;2023-05-07T12:51:50;14.90;99.90
5924;DHT22;2987;50.884;14.818;2023-05-07T12:54:33;14.90;99.90
5924;DHT22;2987;50.884;14.818;2023-05-07T12:57:03;15.00;99.90
5924;DHT22;2987;50.884;14.818;2023-05-07T12:59:47;15.00;99.90
5924;DHT22;2987;50.884;14.818;2023-05-07T13:02:13;15.10;99.90
5924;DHT22;2987;50.884;14.818;2023-05-07T13:04:40;14.90;99.90
5924;DHT22;2987;50.884;14.818;2023-05-07T13:07:07;14.80;99.90
5924;DHT22;2987;50.884;14.818;2023-05-07T13:09:32;14.70;99.90
5924;DHT22;2987;50.884;14.818;2023-05-07T13:11:58;14.70;99.90
5924;DHT22;2987;50.884;14.818;2023-05-07T13:14:27;14.80;99.90
5924;DHT22;2987;50.884;14.818;2023-05-07T13:16:53;14.70;99.90
5924;DHT22;2987;50.884;14.818;2023-05-07T13:19:18;14.70;99.90
5924;DHT22;2987;50.884;14.818;2023-05-07T13:21:44;14.70;99.90
5924;DHT22;2987;50.884;14.818;2023-05-07T13:24:10;14.70;99.90
5924;DHT22;2987;50.884;14.818;2023-05-07T13:26:36;14.70;99.90
5924;DHT22;2987;50.884;14.818;2023-05-07T13:29:02;14.60;99.90
5924;DHT22;2987;50.884;14.818;2023-05-07T13:31:28;14.60;99.90
5924;DHT22;2987;50.884;14.818;2023-05-07T13:33:54;14.70;99.90
5924;DHT22;2987;50.884;14.818;2023-05-07T13:36:21;14.70;99.90
5924;DHT22;2987;50.884;14.818;2023-05-07T13:38:47;14.80;99.90
5924;DHT22;2987;50.884;14.818;2023-05-07T13:41:13;14.80;99.90
5924;DHT22;2987;50.884;14.818;2023-05-07T13:43:40;14.90;99.90
5924;DHT22;2987;50.884;14.818;2023-05-07T13:46:06;14.90;99.90
5924;DHT22;2987;50.884;14.818;2023-05-07T13:48:32;14.70;99.90
5924;DHT22;2987;50.884;14.818;2023-05-07T13:50:58;14.50;99.90
5924;DHT22;2987;50.884;14.818;2023-05-07T13:53:24;14.40;99.90
5924;DHT22;2987;50.884;14.818;2023-05-07T13:55:50;14.40;99.90
5924;DHT22;2987;50.884;14.818;2023-05-07T13:58:16;14.30;99.90
5924;DHT22;2987;50.884;14.818;2023-05-07T14:00:42;14.40;99.90
5924;DHT22;2987;50.884;14.818;2023-05-07T14:03:08;14.30;99.90
5924;DHT22;2987;50.884;14.818;2023-05-07T14:05:33;14.20;99.90
5924;DHT22;2987;50.884;14.818;2023-05-07T14:08:00;14.20;99.90
5924;DHT22;2987;50.884;14.818;2023-05-07T14:10:26;14.00;99.90
5924;DHT22;2987;50.884;14.818;2023-05-07T14:12:52;14.10;99.90
5924;DHT22;2987;50.884;14.818;2023-05-07T14:15:18;14.30;99.90
5924;DHT22;2987;50.884;14.818;2023-05-07T14:17:44;14.50;99.90
5924;DHT22;2987;50.884;14.818;2023-05-07T14:20:11;14.60;99.90
5924;DHT22;2987;50.884;14.818;2023-05-07T14:25:04;14.40;99.90
5924;DHT22;2987;50.884;14.818;2023-05-07T14:27:30;14.30;99.90
5924;DHT22;2987;50.884;14.818;2023-05-07T14:29:56;14.30;99.90
5924;DHT22;2987;50.884;14.818;2023-05-07T14:32:22;14.20;99.90
5924;DHT22;2987;50.884;14.818;2023-05-07T14:34:48;14.10;99.90
5924;DHT22;2987;50.884;14.818;2023-05-07T14:37:13;14.10;99.90
5924;DHT22;2987;50.884;14.818;2023-05-07T14:39:40;14.20;99.90
5924;DHT22;2987;50.884;14.818;2023-05-07T14:42:06;14.10;99.90
5924;DHT22;2987;50.884;14.818;2023-05-07T14:44:35;14.10;99.90
5924;DHT22;2987;50.884;14.818;2023-05-07T14:47:01;14.10;99.90
5924;DHT22;2987;50.884;14.818;2023-05-07T14:49:27;14.00;99.90
5924;DHT22;2987;50.884;14.818;2023-05-07T14:51:53;13.90;99.90
5924;DHT22;2987;50.884;14.818;2023-05-07T14:54:19;13.90;99.90
5924;DHT22;2987;50.884;14.818;2023-05-07T14:56:45;14.00;99.90
5924;DHT22;2987;50.884;14.818;2023-05-07T14:59:11;14.20;99.90
5924;DHT22;2987;50.884;14.818;2023-05-07T15:01:37;14.20;99.90
5924;DHT22;2987;50.884;14.818;2023-05-07T15:04:04;14.30;99.90
5924;DHT22;2987;50.884;14.818;2023-05-07T15:06:31;14.40;99.90
5924;DHT22;2987;50.884;14.818;2023-05-07T15:08:57;14.30;99.90
5924;DHT22;2987;50.884;14.818;2023-05-07T15:11:23;14.30;99.90
5924;DHT22;2987;50.884;14.818;2023-05-07T15:13:50;14.20;99.90
5924;DHT22;2987;50.884;14.818;2023-05-07T15:16:16;14.00;99.90
5924;DHT22;2987;50.884;14.818;2023-05-07T15:18:42;14.00;99.90
5924;DHT22;2987;50.884;14.818;2023-05-07T15:21:08;13.90;99.90
5924;DHT22;2987;50.884;14.818;2023-05-07T15:23:35;13.80;99.90
5924;DHT22;2987;50.884;14.818;2023-05-07T15:26:01;13.80;99.90
5924;DHT22;2987;50.884;14.818;2023-05-07T15:28:27;13.70;99.90
5924;DHT22;2987;50.884;14.818;2023-05-07T15:30:56;13.70;99.90
5924;DHT22;2987;50.884;14.818;2023-05-07T15:33:23;13.60;99.90
5924;DHT22;2987;50.884;14.818;2023-05-07T15:35:49;13.40;99.90
5924;DHT22;2987;50.884;14.818;2023-05-07T15:38:15;13.50;99.90
5924;DHT22;2987;50.884;14.818;2023-05-07T15:40:41;13.40;99.90
5924;DHT22;2987;50.884;14.818;2023-05-07T15:43:08;13.30;99.90
5924;DHT22;2987;50.884;14.818;2023-05-07T15:45:42;13.40;99.90
5924;DHT22;2987;50.884;14.818;2023-05-07T15:48:10;13.40;99.90
5924;DHT22;2987;50.884;14.818;2023-05-07T15:50:36;13.20;99.90
5924;DHT22;2987;50.884;14.818;2023-05-07T15:53:03;13.00;99.90
5924;DHT22;2987;50.884;14.818;2023-05-07T15:55:30;13.00;99.90
5924;DHT22;2987;50.884;14.818;2023-05-07T15:57:57;12.80;99.90
5924;DHT22;2987;50.884;14.818;2023-05-07T16:00:26;12.70;99.90
5924;DHT22;2987;50.884;14.818;2023-05-07T16:02:53;12.40;99.90
5924;DHT22;2987;50.884;14.818;2023-05-07T16:05:19;12.30;99.90
5924;DHT22;2987;50.884;14.818;2023-05-07T16:07:45;12.30;99.90
5924;DHT22;2987;50.884;14.818;2023-05-07T16:10:12;12.30;99.90
5924;DHT22;2987;50.884;14.818;2023-05-07T16:12:37;12.30;99.90
5924;DHT22;2987;50.884;14.818;2023-05-07T16:15:04;12.30;99.90
5924;DHT22;2987;50.884;14.818;2023-05-07T16:17:31;12.20;99.90
5924;DHT22;2987;50.884;14.818;2023-05-07T16:19:57;12.10;99.90